createdAt,value
2023-09-20T00:00:37.943Z,29.53
2023-09-20T00:01:40.035Z,29.57
2023-09-20T00:02:43.247Z,29.54
2023-09-20T00:03:46.701Z,29.52
2023-09-20T00:04:49.394Z,29.42
2023-09-20T00:05:52.159Z,29.50
2023-09-20T00:06:54.589Z,29.40
2023-09-20T00:07:56.589Z,29.46
2023-09-20T00:08:59.980Z,29.41
2023-09-20T00:10:12.607Z,29.45
2023-09-20T00:11:16.889Z,29.40
2023-09-20T00:12:19.107Z,29.39
2023-09-20T00:13:21.467Z,29.35
2023-09-20T00:14:23.681Z,29.37
2023-09-20T00:15:25.893Z,29.31
2023-09-20T00:16:30.216Z,29.31
2023-09-20T00:17:35.306Z,29.33
2023-09-20T00:18:38.555Z,29.30
2023-09-20T00:19:41.351Z,29.22
2023-09-20T00:20:44.395Z,29.28
2023-09-20T00:21:47.751Z,29.26
2023-09-20T00:22:51.833Z,29.23
2023-09-20T00:23:54.162Z,29.24
2023-09-20T00:24:57.342Z,29.20
2023-09-20T00:25:59.614Z,29.19
2023-09-20T00:27:02.282Z,29.12
2023-09-20T00:28:07.206Z,29.14
2023-09-20T00:29:10.201Z,29.10
2023-09-20T00:30:20.917Z,29.11
2023-09-20T00:31:22.987Z,29.05
2023-09-20T00:32:25.122Z,28.99
2023-09-20T00:33:31.032Z,29.04
2023-09-20T00:34:34.428Z,29.02
2023-09-20T00:35:41.966Z,29.03
2023-09-20T00:36:45.416Z,28.98
2023-09-20T00:37:47.572Z,28.96
2023-09-20T00:38:50.832Z,28.98
2023-09-20T00:39:55.799Z,28.92
2023-09-20T00:40:58.125Z,28.91
2023-09-20T00:42:03.227Z,28.89
2023-09-20T00:43:07.988Z,28.89
2023-09-20T00:44:10.007Z,28.90
2023-09-20T00:45:14.924Z,28.87
2023-09-20T00:46:18.273Z,28.86
2023-09-20T00:47:21.793Z,28.86
2023-09-20T00:48:24.065Z,28.82
2023-09-20T00:49:26.366Z,28.85
2023-09-20T00:50:34.991Z,28.79
2023-09-20T00:51:38.330Z,28.81
2023-09-20T00:52:54.667Z,28.79
2023-09-20T00:53:59.568Z,28.82
2023-09-20T00:55:04.335Z,28.75
2023-09-20T00:56:11.325Z,28.78
2023-09-20T00:57:13.812Z,28.75
2023-09-20T00:58:18.753Z,28.74
2023-09-20T00:59:22.930Z,28.73
2023-09-20T01:00:28.697Z,28.73
2023-09-20T01:01:31.025Z,28.68
2023-09-20T01:02:35.687Z,28.67
2023-09-20T01:03:38.828Z,28.68
2023-09-20T01:04:42.047Z,28.68
2023-09-20T01:05:48.038Z,28.67
2023-09-20T01:06:51.810Z,28.67
2023-09-20T01:07:57.830Z,28.68
2023-09-20T01:08:59.901Z,28.66
2023-09-20T01:10:01.923Z,28.67
2023-09-20T01:11:05.013Z,28.63
2023-09-20T01:12:07.689Z,28.58
2023-09-20T01:13:11.649Z,28.61
2023-09-20T01:14:13.715Z,28.62
2023-09-20T01:15:15.807Z,28.55
2023-09-20T01:16:17.770Z,28.61
2023-09-20T01:17:19.939Z,28.61
2023-09-20T01:18:22.249Z,28.64
2023-09-20T01:19:24.180Z,28.64
2023-09-20T01:20:27.862Z,28.60
2023-09-20T01:21:29.872Z,28.64
2023-09-20T01:22:31.902Z,28.61
2023-09-20T01:23:34.288Z,28.62
2023-09-20T01:24:38.627Z,28.61
2023-09-20T01:25:41.375Z,28.61
2023-09-20T01:26:49.409Z,28.64
2023-09-20T01:27:57.033Z,28.59
2023-09-20T01:28:59.304Z,28.54
2023-09-20T01:30:01.349Z,28.57
2023-09-20T01:31:06.208Z,28.56
2023-09-20T01:32:08.478Z,28.54
2023-09-20T01:33:11.017Z,28.46
2023-09-20T01:34:13.130Z,28.44
2023-09-20T01:35:18.054Z,28.51
2023-09-20T01:36:20.625Z,28.49
2023-09-20T01:37:22.607Z,28.46
2023-09-20T01:38:26.964Z,28.46
2023-09-20T01:39:29.045Z,28.44
2023-09-20T01:40:34.343Z,28.39
2023-09-20T01:41:37.368Z,28.42
2023-09-20T01:42:39.636Z,28.44
2023-09-20T01:43:42.349Z,28.39
2023-09-20T01:44:44.302Z,28.44
2023-09-20T01:45:46.401Z,28.45
2023-09-20T01:46:50.062Z,28.40
2023-09-20T01:47:55.795Z,28.44
2023-09-20T01:49:00.065Z,28.42
2023-09-20T01:50:04.634Z,28.34
2023-09-20T01:51:06.707Z,28.39
2023-09-20T01:52:10.155Z,28.35
2023-09-20T01:53:13.008Z,28.34
2023-09-20T01:54:19.390Z,28.35
2023-09-20T01:55:24.874Z,28.32
2023-09-20T01:56:29.937Z,28.30
2023-09-20T01:57:32.376Z,28.30
2023-09-20T01:58:34.339Z,28.25
2023-09-20T01:59:37.241Z,28.22
2023-09-20T02:00:41.412Z,28.27
2023-09-20T02:01:44.734Z,28.25
2023-09-20T02:02:48.101Z,28.24
2023-09-20T02:03:51.982Z,28.22
2023-09-20T02:04:54.401Z,28.25
2023-09-20T02:06:00.153Z,28.15
2023-09-20T02:07:02.237Z,28.23
2023-09-20T02:08:06.292Z,28.21
2023-09-20T02:09:10.453Z,28.20
2023-09-20T02:10:12.685Z,28.10
2023-09-20T02:11:14.833Z,28.14
2023-09-20T02:12:16.778Z,28.16
2023-09-20T02:13:19.760Z,28.12
2023-09-20T02:14:23.270Z,28.14
2023-09-20T02:15:31.240Z,28.17
2023-09-20T02:16:33.570Z,28.14
2023-09-20T02:17:39.546Z,28.10
2023-09-20T02:18:41.807Z,28.11
2023-09-20T02:19:47.243Z,28.11
2023-09-20T02:20:49.436Z,28.11
2023-09-20T02:21:51.632Z,28.09
2023-09-20T02:22:56.890Z,28.08
2023-09-20T02:24:01.321Z,28.04
2023-09-20T02:25:06.009Z,28.06
2023-09-20T02:26:08.273Z,28.03
2023-09-20T02:27:10.467Z,28.02
2023-09-20T02:28:13.239Z,27.97
2023-09-20T02:29:15.321Z,27.97
2023-09-20T02:30:26.053Z,27.97
2023-09-20T02:31:28.525Z,27.95
2023-09-20T02:32:33.470Z,27.99
2023-09-20T02:33:35.389Z,27.94
2023-09-20T02:34:38.850Z,27.94
2023-09-20T02:35:40.998Z,27.92
2023-09-20T02:36:43.095Z,27.92
2023-09-20T02:37:47.309Z,27.95
2023-09-20T02:38:49.498Z,27.94
2023-09-20T02:39:51.573Z,27.93
2023-09-20T02:40:58.199Z,27.95
2023-09-20T02:42:01.298Z,27.93
2023-09-20T02:43:06.513Z,27.91
2023-09-20T02:44:11.254Z,27.93
2023-09-20T02:45:19.039Z,27.90
2023-09-20T02:46:23.135Z,27.92
2023-09-20T02:47:27.914Z,27.92
2023-09-20T02:48:30.128Z,27.88
2023-09-20T02:49:35.654Z,27.88
2023-09-20T02:50:38.313Z,27.81
2023-09-20T02:51:42.943Z,27.88
2023-09-20T02:52:46.842Z,27.84
2023-09-20T02:53:49.501Z,27.86
2023-09-20T02:54:52.716Z,27.87
2023-09-20T02:55:57.787Z,27.85
2023-09-20T02:57:01.421Z,27.85
2023-09-20T02:58:03.796Z,27.85
2023-09-20T02:59:08.481Z,27.88
2023-09-20T03:00:17.531Z,27.90
2023-09-20T03:01:22.342Z,27.87
2023-09-20T03:02:24.720Z,27.87
2023-09-20T03:03:27.063Z,27.86
2023-09-20T03:04:30.074Z,27.85
2023-09-20T03:05:35.459Z,27.86
2023-09-20T03:06:37.710Z,27.85
2023-09-20T03:07:40.336Z,27.78
2023-09-20T03:08:46.077Z,27.83
2023-09-20T03:09:48.407Z,27.83
2023-09-20T03:10:51.343Z,27.75
2023-09-20T03:11:55.660Z,27.76
2023-09-20T03:12:59.521Z,27.79
2023-09-20T03:14:04.639Z,27.75
2023-09-20T03:15:11.440Z,27.75
2023-09-20T03:16:21.124Z,27.83
2023-09-20T03:17:23.135Z,27.73
2023-09-20T03:18:25.255Z,27.76
2023-09-20T03:19:27.717Z,27.73
2023-09-20T03:20:34.178Z,27.67
2023-09-20T03:21:37.442Z,27.72
2023-09-20T03:22:40.104Z,27.70
2023-09-20T03:23:44.093Z,27.71
2023-09-20T03:24:48.769Z,27.68
2023-09-20T03:25:50.810Z,27.65
2023-09-20T03:26:53.622Z,27.67
2023-09-20T03:27:57.379Z,27.67
2023-09-20T03:28:59.530Z,27.65
2023-09-20T03:30:06.859Z,27.65
2023-09-20T03:31:11.926Z,27.65
2023-09-20T03:32:16.489Z,27.65
2023-09-20T03:33:21.909Z,27.64
2023-09-20T03:34:24.035Z,27.61
2023-09-20T03:35:26.802Z,27.57
2023-09-20T03:36:28.907Z,27.59
2023-09-20T03:37:33.917Z,27.57
2023-09-20T03:38:36.590Z,27.57
2023-09-20T03:39:42.586Z,27.58
2023-09-20T03:40:44.900Z,27.56
2023-09-20T03:41:47.252Z,27.59
2023-09-20T03:42:53.726Z,27.58
2023-09-20T03:43:57.562Z,27.56
2023-09-20T03:44:59.743Z,27.56
2023-09-20T03:46:02.839Z,27.55
2023-09-20T03:47:09.737Z,27.58
2023-09-20T03:48:11.803Z,27.56
2023-09-20T03:49:16.196Z,27.58
2023-09-20T03:50:20.772Z,27.52
2023-09-20T03:51:22.676Z,27.57
2023-09-20T03:52:24.916Z,27.55
2023-09-20T03:53:27.176Z,27.56
2023-09-20T03:54:30.861Z,27.53
2023-09-20T03:55:37.316Z,27.57
2023-09-20T03:56:42.606Z,27.54
2023-09-20T03:57:45.066Z,27.52
2023-09-20T03:58:47.195Z,27.52
2023-09-20T03:59:49.184Z,27.51
2023-09-20T04:00:51.790Z,27.47
2023-09-20T04:01:54.829Z,27.44
2023-09-20T04:02:58.218Z,27.45
2023-09-20T04:04:01.802Z,27.44
2023-09-20T04:05:19.202Z,27.45
2023-09-20T04:06:34.703Z,27.50
2023-09-20T04:07:37.279Z,27.45
2023-09-20T04:08:40.073Z,27.43
2023-09-20T04:09:42.981Z,27.38
2023-09-20T04:10:44.863Z,27.40
2023-09-20T04:11:46.901Z,27.41
2023-09-20T04:12:49.830Z,27.39
2023-09-20T04:13:51.815Z,27.39
2023-09-20T04:14:54.699Z,27.29
2023-09-20T04:15:56.882Z,27.35
2023-09-20T04:17:00.569Z,27.35
2023-09-20T04:18:16.517Z,27.35
2023-09-20T04:19:25.145Z,27.36
2023-09-20T04:20:27.687Z,27.34
2023-09-20T04:21:31.527Z,27.30
2023-09-20T04:22:36.780Z,27.31
2023-09-20T04:23:39.662Z,27.30
2023-09-20T04:24:41.640Z,27.28
2023-09-20T04:25:44.129Z,27.28
2023-09-20T04:26:46.072Z,27.27
2023-09-20T04:27:48.071Z,27.19
2023-09-20T04:28:50.220Z,27.23
2023-09-20T04:29:52.140Z,27.23
2023-09-20T04:30:54.044Z,27.23
2023-09-20T04:31:56.938Z,27.17
2023-09-20T04:33:00.373Z,27.21
2023-09-20T04:34:02.715Z,27.19
2023-09-20T04:35:05.740Z,27.12
2023-09-20T04:36:07.936Z,27.16
2023-09-20T04:37:10.397Z,27.15
2023-09-20T04:38:12.774Z,27.06
2023-09-20T04:39:16.474Z,27.10
2023-09-20T04:40:24.632Z,27.12
2023-09-20T04:41:26.882Z,27.11
2023-09-20T04:42:34.973Z,26.97
2023-09-20T04:43:42.408Z,27.10
2023-09-20T04:44:44.519Z,27.07
2023-09-20T04:45:46.470Z,27.07
2023-09-20T04:46:48.843Z,27.03
2023-09-20T04:47:51.106Z,27.08
2023-09-20T04:48:54.878Z,26.97
2023-09-20T04:49:57.266Z,27.06
2023-09-20T04:50:59.358Z,27.06
2023-09-20T04:52:02.253Z,27.02
2023-09-20T04:53:05.700Z,27.03
2023-09-20T04:54:09.085Z,27.01
2023-09-20T04:55:14.656Z,27.02
2023-09-20T04:56:17.591Z,27.02
2023-09-20T04:57:19.607Z,26.99
2023-09-20T04:58:21.576Z,26.97
2023-09-20T04:59:24.257Z,26.94
2023-09-20T05:00:34.990Z,26.96
2023-09-20T05:01:37.513Z,26.96
2023-09-20T05:02:39.685Z,26.95
2023-09-20T05:03:42.388Z,26.86
2023-09-20T05:04:44.405Z,26.87
2023-09-20T05:05:53.545Z,26.92
2023-09-20T05:06:55.703Z,26.94
2023-09-20T05:08:00.741Z,26.92
2023-09-20T05:09:04.696Z,26.88
2023-09-20T05:10:07.959Z,26.90
2023-09-20T05:11:11.781Z,26.90
2023-09-20T05:12:13.922Z,26.88
2023-09-20T05:13:18.013Z,26.88
2023-09-20T05:14:20.318Z,26.85
2023-09-20T05:15:24.529Z,26.88
2023-09-20T05:16:26.674Z,26.83
2023-09-20T05:17:29.158Z,26.83
2023-09-20T05:18:33.297Z,26.85
2023-09-20T05:19:36.437Z,26.88
2023-09-20T05:20:38.408Z,26.87
2023-09-20T05:21:41.569Z,26.85
2023-09-20T05:22:43.748Z,26.81
2023-09-20T05:23:45.964Z,26.83
2023-09-20T05:24:47.939Z,26.83
2023-09-20T05:25:50.929Z,26.83
2023-09-20T05:26:52.887Z,26.78
2023-09-20T05:27:56.057Z,26.82
2023-09-20T05:28:59.338Z,26.80
2023-09-20T05:30:02.115Z,26.81
2023-09-20T05:31:06.975Z,26.79
2023-09-20T05:32:09.407Z,26.79
2023-09-20T05:33:14.816Z,26.83
2023-09-20T05:34:16.724Z,26.81
2023-09-20T05:35:19.556Z,26.79
2023-09-20T05:36:22.449Z,26.74
2023-09-20T05:37:24.308Z,26.79
2023-09-20T05:38:27.248Z,26.77
2023-09-20T05:39:31.129Z,26.76
2023-09-20T05:40:34.298Z,26.78
2023-09-20T05:41:37.722Z,26.78
2023-09-20T05:42:40.695Z,26.79
2023-09-20T05:43:44.112Z,26.79
2023-09-20T05:44:46.058Z,26.80
2023-09-20T05:45:48.048Z,26.81
2023-09-20T05:46:51.480Z,26.81
2023-09-20T05:47:55.745Z,26.81
2023-09-20T05:48:58.471Z,26.80
2023-09-20T05:50:00.654Z,26.81
2023-09-20T05:51:03.257Z,26.78
2023-09-20T05:52:07.628Z,26.81
2023-09-20T05:53:12.426Z,26.83
2023-09-20T05:54:16.774Z,26.85
2023-09-20T05:55:20.096Z,26.84
2023-09-20T05:56:22.486Z,26.82
2023-09-20T05:57:24.929Z,26.70
2023-09-20T05:58:31.474Z,26.84
2023-09-20T05:59:34.766Z,26.86
2023-09-20T06:00:37.811Z,26.81
2023-09-20T06:01:41.727Z,26.86
2023-09-20T06:02:46.033Z,26.79
2023-09-20T06:03:48.298Z,26.81
2023-09-20T06:04:51.996Z,26.71
2023-09-20T06:05:54.086Z,26.77
2023-09-20T06:06:56.183Z,26.72
2023-09-20T06:07:59.084Z,26.80
2023-09-20T06:09:01.181Z,26.78
2023-09-20T06:10:03.496Z,26.73
2023-09-20T06:11:05.759Z,26.78
2023-09-20T06:12:08.047Z,26.78
2023-09-20T06:13:10.911Z,26.77
2023-09-20T06:14:13.143Z,26.76
2023-09-20T06:15:15.624Z,26.78
2023-09-20T06:16:18.388Z,26.71
2023-09-20T06:17:20.355Z,26.78
2023-09-20T06:18:22.998Z,26.77
2023-09-20T06:19:26.693Z,26.77
2023-09-20T06:20:29.469Z,26.78
2023-09-20T06:21:32.806Z,26.75
2023-09-20T06:22:37.101Z,26.75
2023-09-20T06:23:40.874Z,26.71
2023-09-20T06:24:46.379Z,26.80
2023-09-20T06:25:48.798Z,26.79
2023-09-20T06:26:50.670Z,26.79
2023-09-20T06:27:54.667Z,26.79
2023-09-20T06:28:57.083Z,26.81
2023-09-20T06:30:08.054Z,26.81
2023-09-20T06:31:17.594Z,26.82
2023-09-20T06:32:21.627Z,26.83
2023-09-20T06:33:24.052Z,26.78
2023-09-20T06:34:27.477Z,26.81
2023-09-20T06:35:29.908Z,26.76
2023-09-20T06:36:31.865Z,26.82
2023-09-20T06:37:35.276Z,26.80
2023-09-20T06:38:37.459Z,26.78
2023-09-20T06:39:45.298Z,26.81
2023-09-20T06:40:57.125Z,26.85
2023-09-20T06:41:59.607Z,26.87
2023-09-20T06:43:02.823Z,26.90
2023-09-20T06:44:05.445Z,26.90
2023-09-20T06:45:10.255Z,26.86
2023-09-20T06:46:13.353Z,26.93
2023-09-20T06:47:16.194Z,26.93
2023-09-20T06:48:28.612Z,26.95
2023-09-20T06:49:31.305Z,26.97
2023-09-20T06:50:33.272Z,26.92
2023-09-20T06:51:35.799Z,26.95
2023-09-20T06:52:37.888Z,26.96
2023-09-20T06:53:39.839Z,26.97
2023-09-20T06:54:44.236Z,26.99
2023-09-20T06:55:49.097Z,27.01
2023-09-20T06:56:52.510Z,27.07
2023-09-20T06:58:08.899Z,27.06
2023-09-20T06:59:18.120Z,27.12
2023-09-20T07:00:28.101Z,27.10
2023-09-20T07:01:30.865Z,27.08
2023-09-20T07:02:33.842Z,27.16
2023-09-20T07:03:35.868Z,27.15
2023-09-20T07:04:40.546Z,27.16
2023-09-20T07:05:43.017Z,27.18
2023-09-20T07:06:45.318Z,27.18
2023-09-20T07:07:48.530Z,27.21
2023-09-20T07:08:50.631Z,27.22
2023-09-20T07:09:52.938Z,27.24
2023-09-20T07:10:55.140Z,27.26
2023-09-20T07:11:57.173Z,27.20
2023-09-20T07:12:59.327Z,27.21
2023-09-20T07:14:07.138Z,27.19
2023-09-20T07:15:10.370Z,27.32
2023-09-20T07:16:12.664Z,27.30
2023-09-20T07:17:15.594Z,27.34
2023-09-20T07:18:19.331Z,27.34
2023-09-20T07:19:25.143Z,27.36
2023-09-20T07:20:28.128Z,27.34
2023-09-20T07:21:30.434Z,27.39
2023-09-20T07:22:32.355Z,27.40
2023-09-20T07:23:36.297Z,27.39
2023-09-20T07:24:38.483Z,27.44
2023-09-20T07:25:42.702Z,27.44
2023-09-20T07:26:45.199Z,27.48
2023-09-20T07:27:50.648Z,27.45
2023-09-20T07:28:52.427Z,27.42
2023-09-20T07:29:54.724Z,27.51
2023-09-20T07:30:57.299Z,27.52
2023-09-20T07:32:01.238Z,27.52
2023-09-20T07:33:11.841Z,27.55
2023-09-20T07:34:15.362Z,27.59
2023-09-20T07:35:27.897Z,27.58
2023-09-20T07:36:38.058Z,27.60
2023-09-20T07:37:44.480Z,27.62
2023-09-20T07:38:47.176Z,27.64
2023-09-20T07:39:51.802Z,27.62
2023-09-20T07:40:55.394Z,27.62
2023-09-20T07:41:59.623Z,27.66
2023-09-20T07:43:18.728Z,27.66
2023-09-20T07:44:25.787Z,27.72
2023-09-20T07:45:37.061Z,27.66
2023-09-20T07:46:40.577Z,27.75
2023-09-20T07:47:44.861Z,27.71
2023-09-20T07:48:51.490Z,27.75
2023-09-20T07:49:54.668Z,27.77
2023-09-20T07:50:56.724Z,27.75
2023-09-20T07:51:58.553Z,27.73
2023-09-20T07:53:02.234Z,27.76
2023-09-20T07:54:07.320Z,27.73
2023-09-20T07:55:09.410Z,27.77
2023-09-20T07:56:13.676Z,27.76
2023-09-20T07:57:16.748Z,27.73
2023-09-20T07:58:21.181Z,27.74
2023-09-20T07:59:27.737Z,27.76
2023-09-20T08:00:30.046Z,27.76
2023-09-20T08:01:34.979Z,27.68
2023-09-20T08:02:38.302Z,27.79
2023-09-20T08:03:47.658Z,27.79
2023-09-20T08:04:49.611Z,27.73
2023-09-20T08:05:55.569Z,27.79
2023-09-20T08:06:57.700Z,27.80
2023-09-20T08:08:00.000Z,27.80
2023-09-20T08:09:04.174Z,27.80
2023-09-20T08:10:07.565Z,27.80
2023-09-20T08:11:14.034Z,27.79
2023-09-20T08:12:18.082Z,27.82
2023-09-20T08:13:20.625Z,27.83
2023-09-20T08:14:23.860Z,27.83
2023-09-20T08:15:26.254Z,27.85
2023-09-20T08:16:46.975Z,27.83
2023-09-20T08:18:13.719Z,27.90
2023-09-20T08:19:15.673Z,27.87
2023-09-20T08:20:22.354Z,27.84
2023-09-20T08:21:26.738Z,27.86
2023-09-20T08:22:46.883Z,27.81
2023-09-20T08:24:07.034Z,27.91
2023-09-20T08:25:28.018Z,27.88
2023-09-20T08:26:48.418Z,27.89
2023-09-20T08:28:09.085Z,27.88
2023-09-20T08:29:29.337Z,27.89
2023-09-20T08:30:49.964Z,27.90
2023-09-20T08:32:12.004Z,27.90
2023-09-20T08:33:32.515Z,27.88
2023-09-20T08:34:53.365Z,27.89
2023-09-20T08:36:13.642Z,27.87
2023-09-20T08:37:33.913Z,27.90
2023-09-20T08:38:54.572Z,27.88
2023-09-20T08:40:14.576Z,27.86
2023-09-20T08:41:35.090Z,27.87
2023-09-20T08:42:56.539Z,27.87
2023-09-20T08:44:17.841Z,27.89
2023-09-20T08:45:44.910Z,27.93
2023-09-20T08:47:08.202Z,27.90
2023-09-20T08:48:34.742Z,27.90
2023-09-20T08:49:56.599Z,27.90
2023-09-20T08:53:29.168Z,27.84
2023-09-20T08:54:49.681Z,27.86
2023-09-20T08:56:10.154Z,27.87
2023-09-20T08:57:32.636Z,27.89
2023-09-20T08:58:54.050Z,27.90
2023-09-20T08:59:56.933Z,27.91
2023-09-20T09:01:00.612Z,27.89
2023-09-20T09:02:13.399Z,27.91
2023-09-20T09:03:17.217Z,27.92
2023-09-20T09:04:22.608Z,27.92
2023-09-20T09:05:28.657Z,27.93
2023-09-20T09:06:32.095Z,27.93
2023-09-20T09:07:34.030Z,27.95
2023-09-20T09:08:36.086Z,27.95
2023-09-20T09:09:39.947Z,27.97
2023-09-20T09:10:41.976Z,27.97
2023-09-20T09:11:46.971Z,27.99
2023-09-20T09:12:49.635Z,27.99
2023-09-20T09:13:53.255Z,27.99
2023-09-20T09:14:55.661Z,28.00
2023-09-20T09:15:57.749Z,28.02
2023-09-20T09:17:04.520Z,28.06
2023-09-20T09:18:21.898Z,28.10
2023-09-20T09:19:24.301Z,28.10
2023-09-20T09:20:29.845Z,28.07
2023-09-20T09:21:32.137Z,28.08
2023-09-20T09:22:36.308Z,28.10
2023-09-20T09:23:40.233Z,28.09
2023-09-20T09:24:49.582Z,28.16
2023-09-20T09:25:51.458Z,28.12
2023-09-20T09:27:06.540Z,28.19
2023-09-20T09:28:08.543Z,28.14
2023-09-20T09:29:21.243Z,28.20
2023-09-20T09:30:26.063Z,28.16
2023-09-20T09:31:31.216Z,28.15
2023-09-20T09:32:38.244Z,28.17
2023-09-20T09:33:41.241Z,28.17
2023-09-20T09:34:43.666Z,28.15
2023-09-20T09:35:48.740Z,28.16
2023-09-20T09:36:50.741Z,28.18
2023-09-20T09:37:52.749Z,28.17
2023-09-20T09:39:24.226Z,28.28
2023-09-20T09:40:30.772Z,28.25
2023-09-20T09:41:46.172Z,28.32
2023-09-20T09:42:49.275Z,28.25
2023-09-20T09:43:59.965Z,28.29
2023-09-20T09:45:04.645Z,28.26
2023-09-20T09:46:11.492Z,28.30
2023-09-20T09:47:14.908Z,28.28
2023-09-20T09:48:25.607Z,28.34
2023-09-20T09:49:27.801Z,28.32
2023-09-20T09:50:30.317Z,28.32
2023-09-20T09:51:33.878Z,28.33
2023-09-20T09:52:40.298Z,28.36
2023-09-20T09:53:46.031Z,28.37
2023-09-20T09:54:48.360Z,28.39
2023-09-20T09:55:51.548Z,28.41
2023-09-20T09:56:53.565Z,28.40
2023-09-20T09:57:55.729Z,28.42
2023-09-20T09:58:57.932Z,28.43
2023-09-20T10:00:00.121Z,28.45
2023-09-20T10:01:07.792Z,28.45
2023-09-20T10:02:30.215Z,28.57
2023-09-20T10:03:35.599Z,28.54
2023-09-20T10:04:40.134Z,28.53
2023-09-20T10:05:45.829Z,28.54
2023-09-20T10:07:02.757Z,28.55
2023-09-20T10:08:08.385Z,28.58
2023-09-20T10:09:13.419Z,28.58
2023-09-20T10:10:17.637Z,28.61
2023-09-20T10:11:24.630Z,28.61
2023-09-20T10:12:26.935Z,28.61
2023-09-20T10:13:30.933Z,28.60
2023-09-20T10:14:37.539Z,28.64
2023-09-20T10:15:39.823Z,28.65
2023-09-20T10:16:44.011Z,28.64
2023-09-20T10:17:56.663Z,28.73
2023-09-20T10:19:02.147Z,28.68
2023-09-20T10:20:08.632Z,28.68
2023-09-20T10:21:16.105Z,28.69
2023-09-20T10:22:24.924Z,28.76
2023-09-20T10:23:28.443Z,28.73
2023-09-20T10:24:30.756Z,28.70
2023-09-20T10:25:35.941Z,28.73
2023-09-20T10:26:41.958Z,28.77
2023-09-20T10:27:44.139Z,28.76
2023-09-20T10:28:47.143Z,28.75
2023-09-20T10:30:10.367Z,28.87
2023-09-20T10:31:18.616Z,28.87
2023-09-20T10:32:23.493Z,28.82
2023-09-20T10:33:50.125Z,28.96
2023-09-20T10:35:21.218Z,29.01
2023-09-20T10:36:29.932Z,28.93
2023-09-20T10:37:33.375Z,28.87
2023-09-20T10:38:35.387Z,28.86
2023-09-20T10:39:40.032Z,28.85
2023-09-20T10:40:56.269Z,28.91
2023-09-20T10:42:11.220Z,28.98
2023-09-20T10:43:16.864Z,28.91
2023-09-20T10:44:39.555Z,29.02
2023-09-20T10:45:42.418Z,28.95
2023-09-20T10:46:49.728Z,28.94
2023-09-20T10:47:54.048Z,28.94
2023-09-20T10:48:57.669Z,28.93
2023-09-20T10:50:00.694Z,28.95
2023-09-20T10:51:05.073Z,28.95
2023-09-20T10:52:06.918Z,28.96
2023-09-20T10:53:11.564Z,28.96
2023-09-20T10:54:24.656Z,29.05
2023-09-20T10:55:29.839Z,29.01
2023-09-20T10:56:44.653Z,29.09
2023-09-20T10:57:51.839Z,29.05
2023-09-20T10:58:53.827Z,29.03
2023-09-20T10:59:55.756Z,29.03
2023-09-20T11:00:58.775Z,29.03
2023-09-20T11:02:06.479Z,29.05
2023-09-20T11:03:09.562Z,29.07
2023-09-20T11:04:11.553Z,29.08
2023-09-20T11:05:15.251Z,29.07
2023-09-20T11:06:17.809Z,29.08
2023-09-20T11:07:19.931Z,29.10
2023-09-20T11:08:22.769Z,29.10
2023-09-20T11:09:26.759Z,29.11
2023-09-20T11:10:29.472Z,29.11
2023-09-20T11:11:32.761Z,29.12
2023-09-20T11:12:34.701Z,29.15
2023-09-20T11:13:36.548Z,29.16
2023-09-20T11:14:45.891Z,29.20
2023-09-20T11:15:48.262Z,29.19
2023-09-20T11:16:50.502Z,29.19
2023-09-20T11:17:52.984Z,29.19
2023-09-20T11:18:55.960Z,29.20
2023-09-20T11:19:59.331Z,29.20
2023-09-20T11:21:02.336Z,29.21
2023-09-20T11:22:04.720Z,29.21
2023-09-20T11:23:08.085Z,29.22
2023-09-20T11:24:13.610Z,29.26
2023-09-20T11:25:16.321Z,29.25
2023-09-20T11:26:31.391Z,29.34
2023-09-20T11:27:35.973Z,29.28
2023-09-20T11:28:38.467Z,29.28
2023-09-20T11:29:45.073Z,29.29
2023-09-20T11:30:52.567Z,29.30
2023-09-20T11:32:00.588Z,29.34
2023-09-20T11:33:02.789Z,29.31
2023-09-20T11:34:09.654Z,29.31
2023-09-20T11:35:13.013Z,29.33
2023-09-20T11:36:20.459Z,29.34
2023-09-20T11:37:23.825Z,29.34
2023-09-20T11:38:27.646Z,29.35
2023-09-20T11:39:29.745Z,29.35
2023-09-20T11:40:33.107Z,29.33
2023-09-20T11:41:37.305Z,29.34
2023-09-20T11:42:44.416Z,29.38
2023-09-20T11:43:49.391Z,29.39
2023-09-20T11:45:06.443Z,29.42
2023-09-20T11:46:18.257Z,29.44
2023-09-20T11:47:21.168Z,29.41
2023-09-20T11:48:24.032Z,29.41
2023-09-20T11:49:29.118Z,29.42
2023-09-20T11:50:31.281Z,29.43
2023-09-20T11:51:36.359Z,29.44
2023-09-20T11:52:38.407Z,29.44
2023-09-20T11:53:45.380Z,29.45
2023-09-20T11:54:48.956Z,29.44
2023-09-20T11:55:54.668Z,29.43
2023-09-20T11:57:03.194Z,29.49
2023-09-20T11:58:05.176Z,29.48
2023-09-20T11:59:12.560Z,29.48
2023-09-20T12:00:20.108Z,29.52
2023-09-20T12:01:26.604Z,29.53
2023-09-20T12:02:29.989Z,29.52
2023-09-20T12:03:32.168Z,29.51
2023-09-20T12:04:34.252Z,29.52
2023-09-20T12:05:37.345Z,29.52
2023-09-20T12:06:39.233Z,29.53
2023-09-20T12:07:41.430Z,29.53
2023-09-20T12:08:45.090Z,29.56
2023-09-20T12:09:47.242Z,29.57
2023-09-20T12:10:49.123Z,29.59
2023-09-20T12:11:51.760Z,29.59
2023-09-20T12:12:55.108Z,29.59
2023-09-20T12:13:58.097Z,29.61
2023-09-20T12:14:59.995Z,29.62
2023-09-20T12:16:01.902Z,29.64
2023-09-20T12:17:03.886Z,29.64
2023-09-20T12:18:06.434Z,29.64
2023-09-20T12:19:09.485Z,29.66
2023-09-20T12:20:13.310Z,29.66
2023-09-20T12:21:16.846Z,29.68
2023-09-20T12:22:21.238Z,29.68
2023-09-20T12:23:24.239Z,29.69
2023-09-20T12:24:26.409Z,29.69
2023-09-20T12:25:28.377Z,29.70
2023-09-20T12:26:30.340Z,29.69
2023-09-20T12:27:32.334Z,29.69
2023-09-20T12:28:34.337Z,29.68
2023-09-20T12:29:36.290Z,29.71
2023-09-20T12:30:40.960Z,29.68
2023-09-20T12:31:43.030Z,29.71
2023-09-20T12:32:45.152Z,29.71
2023-09-20T12:33:48.060Z,29.72
2023-09-20T12:34:52.865Z,29.73
2023-09-20T12:35:55.730Z,29.72
2023-09-20T12:36:58.088Z,29.73
2023-09-20T12:38:00.114Z,29.75
2023-09-20T12:39:02.674Z,29.75
2023-09-20T12:40:09.282Z,29.74
2023-09-20T12:41:12.776Z,29.76
2023-09-20T12:42:14.824Z,29.78
2023-09-20T12:43:17.241Z,29.76
2023-09-20T12:44:19.913Z,29.78
2023-09-20T12:45:24.529Z,29.79
2023-09-20T12:46:27.655Z,29.80
2023-09-20T12:47:29.664Z,29.80
2023-09-20T12:48:33.472Z,29.80
2023-09-20T12:49:37.980Z,29.81
2023-09-20T12:50:42.731Z,29.82
2023-09-20T12:51:44.765Z,29.83
2023-09-20T12:52:49.858Z,29.86
2023-09-20T12:53:51.965Z,29.85
2023-09-20T12:54:53.996Z,29.84
2023-09-20T12:55:55.931Z,29.83
2023-09-20T12:57:01.058Z,29.87
2023-09-20T12:58:03.204Z,29.87
2023-09-20T12:59:05.241Z,29.86
2023-09-20T13:00:15.386Z,29.90
2023-09-20T13:01:20.477Z,29.89
2023-09-20T13:02:24.628Z,29.89
2023-09-20T13:03:30.303Z,29.89
2023-09-20T13:04:32.557Z,29.92
2023-09-20T13:05:40.295Z,29.94
2023-09-20T13:06:44.588Z,29.93
2023-09-20T13:07:46.481Z,29.93
2023-09-20T13:08:49.770Z,29.93
2023-09-20T13:09:51.706Z,29.95
2023-09-20T13:10:58.176Z,29.94
2023-09-20T13:12:01.102Z,29.97
2023-09-20T13:13:04.369Z,29.95
2023-09-20T13:14:06.267Z,29.97
2023-09-20T13:15:15.500Z,29.98
2023-09-20T13:16:18.192Z,30.00
2023-09-20T13:17:21.938Z,29.99
2023-09-20T13:18:24.311Z,30.00
2023-09-20T13:19:26.231Z,30.01
2023-09-20T13:20:28.954Z,30.02
2023-09-20T13:21:30.881Z,30.02
2023-09-20T13:22:32.810Z,30.03
2023-09-20T13:23:36.155Z,30.02
2023-09-20T13:24:40.601Z,30.05
2023-09-20T13:25:43.902Z,30.05
2023-09-20T13:26:46.283Z,30.06
2023-09-20T13:27:54.389Z,30.10
2023-09-20T13:28:56.806Z,30.08
2023-09-20T13:29:58.973Z,30.08
2023-09-20T13:31:03.328Z,30.07
2023-09-20T13:32:09.508Z,30.09
2023-09-20T13:33:13.311Z,30.08
2023-09-20T13:34:17.397Z,30.10
2023-09-20T13:35:22.610Z,30.09
2023-09-20T13:36:26.388Z,30.11
2023-09-20T13:37:29.094Z,30.12
2023-09-20T13:38:31.146Z,30.11
2023-09-20T13:39:33.365Z,30.09
2023-09-20T13:40:37.294Z,30.11
2023-09-20T13:41:40.637Z,30.14
2023-09-20T13:42:45.447Z,30.12
2023-09-20T13:43:47.387Z,30.12
2023-09-20T13:44:51.527Z,30.13
2023-09-20T13:45:54.493Z,30.14
2023-09-20T13:46:57.766Z,30.14
2023-09-20T13:47:59.781Z,30.14
2023-09-20T13:49:01.935Z,30.15
2023-09-20T13:50:08.424Z,30.15
2023-09-20T13:51:20.188Z,30.23
2023-09-20T13:52:22.180Z,30.20
2023-09-20T13:53:24.109Z,30.19
2023-09-20T13:54:26.091Z,30.19
2023-09-20T13:55:32.629Z,30.19
2023-09-20T13:56:37.864Z,30.20
2023-09-20T13:57:39.780Z,30.20